Time;durP1;ratioP1;P1;durP2;ratioP2;P2;SDS_P1;SDS_P2;PMS_P1;PMS_P2;Temp;Humidity;BMP_temperature;BMP_pressure;BME280_temperature;BME280_humidity;BME280_pressure;Samples;Min_cycle;Max_cycle;Signal;HPM_P1;HPM_P2
2022/02/02 03:52:02;;;;;;;;;;;;;;;;;;;;;
2022/02/02 04:55:26;;;;;;;8.23;1.48;;;;;;;8.21;93.91;101668.81;5754775;24;20027;-80
2022/02/02 05:59:05;;;;;;;9.45;2.03;;;;;;;7.83;94.35;101725.25;5114239;27;20133;-79
2022/02/02 06:01:57;;;;;;;12.07;3.60;;;;;;;7.84;94.70;101722.19;5098799;28;20031;-80
2022/02/02 06:04:51;;;;;;;19.67;2.75;;;;;;;7.88;94.73;101712.22;5065479;28;20048;-79
2022/02/02 06:07:54;;;;;;;;;;;;;;;;;;;;;
2022/02/02 06:10:26;;;;;;;16.73;3.63;;;;;;;7.92;94.80;101702.19;5099874;28;20063;-79
2022/02/02 06:13:09;;;;;;;15.00;3.08;;;;;;;7.96;94.79;101702.41;5094588;28;20101;-79
2022/02/02 06:16:23;;;;;;;15.35;2.83;;;;;;;7.97;94.80;101699.34;5097173;28;20152;-79
2022/02/02 06:19:26;;;;;;;16.10;2.80;;;;;;;8.04;94.95;101703.63;5076849;28;20068;-79
2022/02/02 06:22:36;;;;;;;13.35;2.85;;;;;;;8.05;94.87;101700.56;5077619;28;20044;-79
2022/02/02 06:25:41;;;;;;;31.25;4.93;;;;;;;8.10;95.08;101703.22;5076432;28;20201;-79
2022/02/02 06:28:23;;;;;;;23.92;3.15;;;;;;;8.13;95.03;101690.78;5064232;28;20048;-79
2022/02/02 06:31:21;;;;;;;16.63;2.83;;;;;;;8.19;94.92;101681.28;5069170;28;20523;-79
2022/02/02 06:34:08;;;;;;;15.93;2.90;;;;;;;8.19;95.09;101689.53;5075319;28;20089;-79
2022/02/02 06:36:53;;;;;;;19.30;4.07;;;;;;;8.22;94.89;101699.97;5075611;28;20135;-79
2022/02/02 06:39:29;;;;;;;;;;;;;;;8.22;95.38;101699.97;5059168;28;20048;-79
2022/02/02 06:42:09;;;;;;;23.10;4.27;;;;;;;8.24;94.95;101706.00;5074694;28;20005;-80
2022/02/02 06:45:06;;;;;;;17.77;3.15;;;;;;;8.23;95.30;101705.19;5089678;28;20543;-80
2022/02/02 06:48:53;;;;;;;19.15;3.08;;;;;;;8.27;95.35;101708.19;5080186;28;20059;-79
2022/02/02 06:51:25;;;;;;;19.65;3.88;;;;;;;8.32;95.00;101716.34;5091331;28;20044;-79
2022/02/02 06:54:07;;;;;;;16.33;4.57;;;;;;;8.35;95.21;101722.09;5090711;28;20394;-79
2022/02/02 06:57:07;;;;;;;22.45;3.30;;;;;;;8.37;95.21;101716.25;5077482;28;20401;-79
2022/02/02 07:00:10;;;;;;;18.45;4.22;;;;;;;8.37;95.24;101717.06;5077946;28;20481;-80
2022/02/02 07:06:02;;;;;;;18.13;3.60;;;;;;;8.38;95.55;101713.19;5038900;28;20067;-79
2022/02/02 07:09:24;;;;;;;16.73;3.88;;;;;;;8.40;95.48;101719.22;5062878;28;20044;-79
2022/02/02 07:11:55;;;;;;;19.25;3.65;;;;;;;8.41;95.61;101726.38;5071433;28;20055;-80
2022/02/02 07:14:43;;;;;;;18.55;3.63;;;;;;;8.43;95.75;101731.56;5061416;28;20045;-79
2022/02/02 07:20:17;;;;;;;16.58;3.80;;;;;;;8.48;95.63;101742.50;5063362;28;20040;-79
2022/02/02 07:28:22;;;;;;;23.20;5.32;;;;;;;8.52;95.23;101738.03;5060819;28;20048;-79
2022/02/02 07:31:09;;;;;;;25.13;5.25;;;;;;;8.53;96.12;101739.66;5078131;28;20036;-79
2022/02/02 07:34:29;;;;;;;19.10;4.43;;;;;;;8.53;96.03;101734.94;5053389;28;20512;-79
2022/02/02 07:37:02;;;;;;;18.90;5.60;;;;;;;8.54;95.87;101752.34;5028784;28;20055;-79
2022/02/02 07:39:44;;;;;;;20.08;4.25;;;;;;;8.54;96.20;101747.63;5047053;28;20571;-80
2022/02/02 07:42:19;;;;;;;22.23;4.22;;;;;;;8.56;95.82;101755.59;5044448;28;20583;-79
2022/02/02 07:44:53;;;;;;;22.90;3.88;;;;;;;8.60;95.94;101756.63;5011331;28;20209;-79
2022/02/02 07:47:24;;;;;;;20.85;3.25;;;;;;;8.59;96.15;101755.00;5016794;28;20059;-78
2022/02/02 07:50:02;;;;;;;16.65;4.05;;;;;;;8.62;96.16;101765.41;5029353;28;20730;-79
2022/02/02 07:53:11;;;;;;;15.45;4.40;;;;;;;8.63;96.19;101761.50;5043702;28;20844;-78
2022/02/02 07:55:42;;;;;;;13.65;3.58;;;;;;;8.67;96.29;101764.50;5048387;28;20149;-77
2022/02/02 07:58:12;;;;;;;17.83;4.90;;;;;;;8.67;95.93;101757.03;5045852;28;20055;-78
2022/02/02 08:00:39;;;;;;;19.02;4.13;;;;;;;8.68;95.84;101758.69;5043297;28;20059;-78
2022/02/02 08:03:11;;;;;;;28.88;6.40;;;;;;;8.70;95.83;101755.59;5046975;28;20048;-78
2022/02/02 08:05:45;;;;;;;23.25;5.38;;;;;;;8.70;95.95;101758.34;5045955;28;20511;-78
2022/02/02 08:10:41;;;;;;;27.70;6.22;;;;;;;8.71;96.31;101763.56;5045255;28;20055;-78
2022/02/02 08:13:17;;;;;;;19.00;5.65;;;;;;;8.72;96.29;101762.44;5029188;28;20048;-78
2022/02/02 08:15:50;;;;;;;17.27;4.40;;;;;;;8.72;96.02;101759.69;5029190;28;20044;-78
2022/02/02 08:18:17;;;;;;;25.58;6.50;;;;;;;8.74;96.21;101754.66;5047869;28;21719;-78
2022/02/02 08:20:44;;;;;;;25.95;5.32;;;;;;;8.74;96.21;101735.34;5074156;28;20047;-78
2022/02/02 08:23:10;;;;;;;27.83;5.32;;;;;;;8.73;96.56;101738.41;5079743;28;20048;-77
2022/02/02 08:25:39;;;;;;;50.58;7.72;;;;;;;8.74;95.81;101748.31;5059537;28;20040;-78
2022/02/02 08:28:06;;;;;;;19.08;4.60;;;;;;;8.74;96.27;101740.84;5057565;28;20043;-78
2022/02/02 08:30:33;;;;;;;24.77;4.95;;;;;;;8.75;96.10;101741.69;5056619;28;20055;-78
2022/02/02 08:33:03;;;;;;;22.48;5.50;;;;;;;8.75;96.16;101731.47;5062112;28;20041;-78
2022/02/02 08:35:35;;;;;;;25.17;5.55;;;;;;;8.75;96.19;101734.22;5079946;28;20051;-78
2022/02/02 08:38:13;;;;;;;24.42;6.43;;;;;;;8.76;96.00;101733.09;5080382;28;20040;-78
2022/02/02 08:40:46;;;;;;;20.40;4.60;;;;;;;8.77;95.93;101751.28;5078345;28;20550;-78
2022/02/02 08:43:23;;;;;;;17.55;4.95;;;;;;;8.77;96.06;101747.72;5077904;28;20036;-78
2022/02/02 08:49:56;;;;;;;22.08;4.85;;;;;;;8.80;96.43;101755.38;4953273;28;20170;-83
2022/02/02 08:53:51;;;;;;;;;;;;;;;;;;;;;
2022/02/02 08:57:57;;;;;;;;;;;;;;;;;;;;;
2022/02/02 09:08:05;;;;;;;25.95;5.70;;;;;;;8.85;96.33;101736.75;4862204;29;20065;-78
2022/02/02 09:24:48;;;;;;;31.67;5.75;;;;;;;8.89;96.31;101726.75;5080110;28;20113;-78
2022/02/02 09:34:06;;;;;;;23.67;4.63;;;;;;;8.93;96.28;101744.31;5011167;28;20867;-78
2022/02/02 09:37:27;;;;;;;27.50;5.53;;;;;;;8.95;96.30;101741.22;5076251;28;20048;-82
2022/02/02 09:44:03;;;;;;;26.52;7.03;;;;;;;9.00;96.24;101732.84;5020217;28;20063;-81
2022/02/02 09:49:41;;;;;;;29.45;4.95;;;;;;;9.02;96.33;101731.41;5077309;28;20071;-81
2022/02/02 09:52:15;;;;;;;33.75;6.70;;;;;;;9.03;96.18;101727.50;5059026;28;20556;-80
2022/02/02 09:55:15;;;;;;;32.63;5.65;;;;;;;9.06;96.23;101732.41;5061316;28;20494;-81
2022/02/02 10:14:54;;;;;;;31.70;5.63;;;;;;;9.21;95.91;101747.00;5079032;28;20448;-82
2022/02/02 10:17:33;;;;;;;26.33;5.38;;;;;;;9.24;95.58;101743.63;5077019;28;20090;-82
2022/02/02 10:20:25;;;;;;;30.93;6.37;;;;;;;9.26;95.54;101735.84;5046688;28;20046;-82
2022/02/02 10:23:14;;;;;;;51.05;9.30;;;;;;;9.31;95.51;101735.72;5060965;28;20036;-82
2022/02/02 10:25:50;;;;;;;21.10;5.28;;;;;;;9.35;95.42;101736.72;5045049;28;20129;-82
2022/02/02 10:28:24;;;;;;;20.65;5.95;;;;;;;9.37;95.29;101743.56;5078018;28;20118;-82
2022/02/02 10:31:16;;;;;;;20.88;5.97;;;;;;;9.40;95.20;101737.41;5061557;28;20110;-81
2022/02/02 10:34:09;;;;;;;26.60;7.40;;;;;;;9.44;94.99;101732.09;5062170;28;20101;-80
2022/02/02 10:36:39;;;;;;;21.08;6.22;;;;;;;9.47;95.30;101731.47;5046731;28;20046;-82
2022/02/02 10:39:16;;;;;;;24.85;7.55;;;;;;;9.50;94.88;101719.78;5080435;28;20519;-82
2022/02/02 10:42:07;;;;;;;23.08;5.60;;;;;;;9.48;94.62;101724.78;5081790;28;20042;-81
2022/02/02 10:44:50;;;;;;;23.55;6.53;;;;;;;9.50;94.58;101722.53;5064373;28;20068;-81
2022/02/02 10:47:40;;;;;;;17.80;6.22;;;;;;;9.49;94.29;101718.13;5065847;28;20047;-82
2022/02/02 10:50:28;;;;;;;26.45;6.45;;;;;;;9.50;94.16;101723.38;5082114;28;20110;-82
2022/02/02 10:59:37;;;;;;;12.15;4.70;;;;;;;9.56;93.87;101707.44;5080245;28;20051;-81
2022/02/02 11:08:12;;;;;;;17.98;5.30;;;;;;;9.50;93.22;101692.13;5082780;28;20144;-79
2022/02/02 11:10:43;;;;;;;21.45;6.53;;;;;;;9.54;93.27;101687.59;5063544;28;20131;-82
2022/02/02 11:13:16;;;;;;;22.75;6.07;;;;;;;9.54;93.22;101682.06;5078278;28;20062;-80
2022/02/02 11:15:53;;;;;;;22.05;5.95;;;;;;;9.54;92.80;101688.41;5082914;28;20044;-82
2022/02/02 11:18:32;;;;;;;20.57;6.63;;;;;;;9.60;92.95;101691.88;5064083;28;20048;-82
2022/02/02 11:21:08;;;;;;;21.15;5.22;;;;;;;9.63;92.89;101691.25;5081640;28;20288;-82
2022/02/02 11:23:43;;;;;;;15.65;4.68;;;;;;;9.66;92.72;101694.19;5081038;28;20090;-81
2022/02/02 11:26:44;;;;;;;19.48;4.60;;;;;;;9.66;92.19;101685.09;5059111;28;20047;-82
2022/02/02 11:29:48;;;;;;;23.10;5.10;;;;;;;9.70;92.25;101691.59;5061868;28;20044;-81
2022/02/02 11:32:21;;;;;;;16.05;5.40;;;;;;;9.71;92.21;101690.47;5065797;28;20052;-81
2022/02/02 11:35:26;;;;;;;17.63;5.28;;;;;;;9.67;91.67;101693.06;5061702;28;20121;-81
2022/02/02 11:38:36;;;;;;;17.77;5.53;;;;;;;9.68;92.09;101691.13;5080523;28;20044;-81
2022/02/02 11:41:15;;;;;;;18.10;4.43;;;;;;;9.71;92.02;101698.78;5045740;28;20052;-78
2022/02/02 11:44:14;;;;;;;19.80;5.25;;;;;;;9.72;91.61;101689.34;5060889;28;20127;-80
2022/02/02 11:49:59;;;;;;;20.38;5.07;;;;;;;9.81;91.65;101681.91;5059260;28;20048;-79
2022/02/02 11:52:42;;;;;;;15.80;5.53;;;;;;;9.84;91.48;101681.28;5079663;28;20039;-79
2022/02/02 11:55:11;;;;;;;19.02;4.38;;;;;;;9.85;91.27;101671.84;5079624;28;20048;-79
2022/02/02 11:57:57;;;;;;;17.25;5.63;;;;;;;9.87;91.28;101663.25;5079881;28;20055;-79
2022/02/02 12:00:38;;;;;;;22.83;5.70;;;;;;;9.91;91.45;101656.75;5078597;28;20044;-79
2022/02/02 12:35:55;;;;;;;20.98;5.57;;;;;;;10.25;89.33;101609.84;5080376;28;20065;-79
2022/02/02 12:50:01;;;;;;;18.98;3.58;;;;;;;10.24;88.67;101602.72;5064370;28;20085;-79
2022/02/02 12:58:16;;;;;;;19.55;2.75;;;;;;;10.41;87.72;101585.28;5078262;28;20055;-79
2022/02/02 13:03:13;;;;;;;14.02;3.90;;;;;;;10.52;87.54;101591.34;5078248;28;20048;-79
2022/02/02 13:05:42;;;;;;;10.07;2.60;;;;;;;10.69;87.25;101580.28;5077631;28;20482;-80
2022/02/02 13:08:09;;;;;;;10.18;2.58;;;;;;;10.90;86.89;101595.09;5061918;28;20056;-79
2022/02/02 13:10:38;;;;;;;14.63;4.22;;;;;;;10.99;86.25;101590.34;5057535;28;20564;-80
2022/02/02 13:13:09;;;;;;;12.27;3.10;;;;;;;10.98;85.21;101577.66;5078250;28;20135;-80
2022/02/02 13:15:56;;;;;;;13.30;3.53;;;;;;;10.97;85.76;101584.34;5062360;28;20046;-79
2022/02/02 13:18:36;;;;;;;8.57;3.65;;;;;;;10.90;84.63;101570.19;5060464;28;20124;-79
2022/02/02 13:24:04;;;;;;;12.13;4.00;;;;;;;10.77;84.72;101538.75;5079188;28;20156;-80
2022/02/02 13:26:39;;;;;;;11.02;4.13;;;;;;;10.79;85.03;101532.88;5060717;28;20063;-79
2022/02/02 13:29:25;;;;;;;9.93;3.65;;;;;;;10.78;84.46;101525.69;5078096;28;20040;-79
2022/02/02 13:32:13;;;;;;;10.90;3.70;;;;;;;10.75;83.79;101523.59;5079068;28;20059;-80
2022/02/02 13:34:49;;;;;;;15.55;3.85;;;;;;;10.73;83.55;101537.75;5079385;28;20066;-79
2022/02/02 13:49:58;;;;;;;10.07;4.28;;;;;;;10.58;83.46;101540.22;5077187;28;21553;-79
2022/02/02 13:55:36;;;;;;;19.80;5.72;;;;;;;10.50;83.15;101544.59;5077397;28;20043;-79
2022/02/02 13:58:28;;;;;;;18.08;4.00;;;;;;;10.47;83.54;101542.47;5075912;28;20535;-79
2022/02/02 14:01:07;;;;;;;16.20;4.18;;;;;;;10.46;83.84;101542.81;5076462;28;20072;-79
2022/02/02 14:33:49;;;;;;;11.18;2.55;;;;;;;10.41;83.77;101541.00;5082441;28;20044;-79
2022/02/02 14:36:20;;;;;;;13.18;2.80;;;;;;;10.44;83.66;101536.78;5064996;28;20047;-79
2022/02/02 14:39:02;;;;;;;9.07;2.80;;;;;;;10.43;83.73;101521.31;5064660;28;20047;-79
2022/02/02 14:44:21;;;;;;;13.88;3.10;;;;;;;10.43;83.63;101526.84;5064297;28;20016;-78
2022/02/02 14:47:12;;;;;;;9.07;2.43;;;;;;;10.40;83.76;101523.56;5066220;28;20089;-78
2022/02/02 14:49:52;;;;;;;11.45;2.58;;;;;;;10.39;83.34;101524.72;5063669;28;20037;-78
2022/02/02 15:25:44;;;;;;;9.43;3.10;;;;;;;10.31;83.36;101467.41;5063590;28;20044;-80
2022/02/02 15:32:58;;;;;;;7.13;2.70;;;;;;;10.30;83.29;101463.00;5080450;28;20041;-81
2022/02/02 15:35:27;;;;;;;14.25;2.75;;;;;;;10.30;83.15;101460.25;5080476;28;20040;-80
2022/02/02 15:38:04;;;;;;;15.15;3.67;;;;;;;10.29;82.94;101452.28;5063968;28;20109;-80
2022/02/02 15:40:39;;;;;;;17.00;4.03;;;;;;;10.28;82.82;101439.56;5079835;28;20040;-81
2022/02/02 15:43:25;;;;;;;18.15;3.15;;;;;;;10.28;82.82;101445.94;5063184;28;20098;-80
2022/02/02 16:02:45;;;;;;;8.57;2.38;;;;;;;10.25;82.50;101432.75;5061833;28;20052;-80
2022/02/02 16:05:15;;;;;;;14.23;3.00;;;;;;;10.22;82.47;101433.38;5081581;28;20051;-81
2022/02/02 16:07:42;;;;;;;13.30;2.40;;;;;;;10.22;82.56;101433.38;5080568;28;20277;-80
2022/02/02 16:10:17;;;;;;;9.25;3.20;;;;;;;10.22;82.55;101432.56;5080538;28;20128;-79
2022/02/02 16:12:46;;;;;;;8.25;2.10;;;;;;;10.20;82.49;101441.22;5046031;28;20044;-79
2022/02/02 16:15:18;;;;;;;11.18;3.40;;;;;;;10.17;82.56;101436.31;5079893;28;20047;-81
2022/02/02 16:37:10;;;;;;;15.75;3.75;;;;;;;10.03;83.39;101407.16;5077690;28;20051;-80
2022/02/02 16:39:49;;;;;;;7.95;3.20;;;;;;;9.99;83.45;101392.34;5060418;28;20089;-80
2022/02/02 16:45:05;;;;;;;13.48;4.18;;;;;;;9.91;83.67;101393.97;5076050;28;20215;-79
2022/02/02 16:47:41;;;;;;;15.50;4.32;;;;;;;9.92;83.85;101398.38;5043753;28;20079;-80
2022/02/02 16:50:20;;;;;;;14.95;4.25;;;;;;;9.90;83.96;101392.34;5061931;28;20063;-79
2022/02/02 16:52:51;;;;;;;17.00;3.10;;;;;;;9.91;83.97;101385.69;5078379;28;20374;-79
2022/02/02 16:55:48;;;;;;;13.48;3.38;;;;;;;9.89;84.54;101379.66;5080081;28;20036;-79
2022/02/02 17:24:19;;;;;;;15.30;4.00;;;;;;;9.81;85.08;101380.47;5059414;28;20141;-80
2022/02/02 17:27:52;;;;;;;12.90;3.13;;;;;;;9.61;86.17;101361.78;5059191;28;20033;-80
2022/02/02 17:32:07;;;;;;;12.32;3.13;;;;;;;9.59;86.55;101358.50;5060569;28;20141;-79
2022/02/02 17:34:54;;;;;;;12.18;4.15;;;;;;;9.57;86.61;101355.25;5058973;28;20068;-80
2022/02/02 17:43:04;;;;;;;11.30;3.30;;;;;;;9.56;86.73;101337.00;5056506;28;20693;-80
2022/02/02 18:17:22;;;;;;;9.38;4.03;;;;;;;9.46;88.42;101331.81;5057425;28;20041;-79
2022/02/02 18:19:09;;;;;;;7.82;3.38;;;;;;;9.43;88.62;101329.69;5056586;28;20147;-79
2022/02/02 18:21:36;;;;;;;7.38;3.20;;;;;;;9.41;88.89;101334.72;5056647;28;20049;-79
2022/02/02 18:24:17;;;;;;;9.77;4.75;;;;;;;9.40;88.95;101338.66;5054094;28;20049;-81
2022/02/02 18:26:54;;;;;;;12.70;4.03;;;;;;;9.39;89.06;101323.19;5056770;28;20040;-79
2022/02/02 18:29:31;;;;;;;7.90;3.80;;;;;;;9.39;89.23;101325.97;5050373;28;20140;-79
2022/02/02 18:32:17;;;;;;;12.35;3.67;;;;;;;9.38;89.50;101330.66;5037457;28;20044;-79
2022/02/02 18:34:53;;;;;;;11.07;3.60;;;;;;;9.38;89.38;101329.84;5051481;28;20053;-79
2022/02/02 18:50:58;;;;;;;9.40;4.63;;;;;;;9.35;89.80;101319.44;5055422;28;20102;-79
2022/02/02 18:59:42;;;;;;;11.63;5.55;;;;;;;9.36;90.12;101321.91;5074196;28;20576;-78
2022/02/02 19:37:36;;;;;;;10.50;5.65;;;;;;;9.29;90.30;101276.53;5076871;28;20054;-79
2022/02/02 19:40:12;;;;;;;12.48;5.35;;;;;;;9.29;90.43;101268.25;5062003;28;20051;-79
2022/02/02 19:56:45;;;;;;;6.47;4.65;;;;;;;9.23;90.54;101250.19;5074415;28;20051;-80
2022/02/02 20:12:18;;;;;;;10.73;5.65;;;;;;;9.26;90.47;101230.22;5056668;28;20050;-80
2022/02/02 20:14:46;;;;;;;11.43;5.85;;;;;;;9.23;90.45;101228.09;5059061;28;20048;-79
2022/02/02 20:17:16;;;;;;;16.30;8.38;;;;;;;9.23;90.26;101206.81;5044029;28;20048;-79
2022/02/02 20:19:48;;;;;;;12.60;6.07;;;;;;;9.23;90.29;101212.34;5079995;28;20119;-80
2022/02/02 20:22:19;;;;;;;10.02;5.47;;;;;;;9.22;90.14;101215.41;5059897;28;20143;-79
2022/02/02 20:24:55;;;;;;;8.48;4.78;;;;;;;9.19;89.83;101211.34;5059649;28;20125;-79
2022/02/02 20:27:24;;;;;;;10.48;5.07;;;;;;;9.17;90.19;101211.69;5074253;28;20584;-79
2022/02/02 20:29:51;;;;;;;10.75;4.45;;;;;;;9.14;90.28;101204.03;5044891;28;20052;-79
2022/02/02 20:32:18;;;;;;;6.15;3.70;;;;;;;9.16;90.12;101196.22;5060264;28;20048;-79
2022/02/02 20:34:45;;;;;;;6.05;4.00;;;;;;;9.16;90.14;101196.22;5056902;28;20044;-80
2022/02/02 20:37:18;;;;;;;12.63;6.07;;;;;;;9.16;90.11;101201.75;5040311;28;20047;-79
2022/02/02 20:39:55;;;;;;;8.32;4.40;;;;;;;9.16;90.06;101185.19;5059563;28;20048;-79
2022/02/02 21:02:55;;;;;;;12.30;3.65;;;;;;;9.08;89.80;101166.66;5053787;28;20135;-80
2022/02/02 21:04:54;;;;;;;5.65;3.33;;;;;;;9.08;89.83;101171.41;5053895;28;20144;-86
2022/02/02 22:33:09;;;;;;;3.53;2.50;;;;;;;8.77;89.66;101072.13;4934298;23;20052;-80
2022/02/02 22:40:26;;;;;;;;;;;;;;;;;;;;;
2022/02/02 22:43:15;;;;;;;2.75;1.75;;;;;;;8.72;89.75;101075.06;4906451;29;20554;-80
2022/02/02 22:49:13;;;;;;;2.72;1.70;;;;;;;8.71;89.58;101078.16;4894816;29;20064;-80
2022/02/02 22:52:19;;;;;;;5.88;2.10;;;;;;;8.72;89.73;101075.06;4907218;29;20067;-81
2022/02/02 22:54:51;;;;;;;4.68;1.83;;;;;;;8.70;89.54;101071.81;4906741;29;20051;-79
2022/02/02 22:57:45;;;;;;;4.10;2.40;;;;;;;8.70;89.65;101082.88;4906494;29;20059;-81
2022/02/02 23:00:26;;;;;;;6.00;1.58;;;;;;;8.70;89.69;101082.88;4906091;29;20127;-79
2022/02/02 23:03:26;;;;;;;6.75;1.90;;;;;;;8.69;89.53;101085.94;4888223;29;20463;-80
2022/02/02 23:10:22;;;;;;;7.03;3.10;;;;;;;8.68;89.47;101096.19;4893062;29;20068;-80
2022/02/02 23:12:55;;;;;;;5.22;2.08;;;;;;;8.68;89.42;101073.28;4921749;29;20055;-80
2022/02/02 23:15:48;;;;;;;3.20;1.65;;;;;;;8.66;89.45;101070.81;4919337;29;20459;-80
2022/02/02 23:18:25;;;;;;;4.20;1.83;;;;;;;8.67;89.44;101066.94;4900516;29;20071;-80
2022/02/02 23:21:04;;;;;;;5.75;2.45;;;;;;;8.64;89.18;101045.50;4889728;29;20498;-80
2022/02/02 23:23:47;;;;;;;4.32;2.60;;;;;;;8.63;89.38;101038.34;4898710;29;20499;-80
2022/02/02 23:26:33;;;;;;;5.10;2.35;;;;;;;8.64;89.30;101040.00;4898868;29;20131;-80
2022/02/02 23:29:13;;;;;;;9.30;3.38;;;;;;;8.58;89.48;101030.25;4874133;29;20108;-80
